sensor_id;sensor_type;location;lat;lon;timestamp;temperature;humidity
44775;DHT22;31340;51.402;0.016;2023-06-19T00:00:25;18.00;99.90
44775;DHT22;31340;51.402;0.016;2023-06-19T00:02:53;18.00;99.90
44775;DHT22;31340;51.402;0.016;2023-06-19T00:05:21;18.00;99.90
44775;DHT22;31340;51.402;0.016;2023-06-19T00:07:51;18.00;99.90
44775;DHT22;31340;51.402;0.016;2023-06-19T00:10:20;18.00;99.90
44775;DHT22;31340;51.402;0.016;2023-06-19T00:12:48;18.00;99.90
44775;DHT22;31340;51.402;0.016;2023-06-19T00:15:15;18.00;99.90
44775;DHT22;31340;51.402;0.016;2023-06-19T00:17:43;17.90;99.90
44775;DHT22;31340;51.402;0.016;2023-06-19T00:20:11;17.90;99.90
44775;DHT22;31340;51.402;0.016;2023-06-19T00:22:41;17.90;99.90
44775;DHT22;31340;51.402;0.016;2023-06-19T00:25:09;17.90;99.90
44775;DHT22;31340;51.402;0.016;2023-06-19T00:27:37;17.90;99.90
44775;DHT22;31340;51.402;0.016;2023-06-19T00:30:05;17.90;99.90
44775;DHT22;31340;51.402;0.016;2023-06-19T00:32:34;17.90;99.90
44775;DHT22;31340;51.402;0.016;2023-06-19T00:35:14;17.90;99.90
44775;DHT22;31340;51.402;0.016;2023-06-19T00:37:42;17.90;99.90
44775;DHT22;31340;51.402;0.016;2023-06-19T00:40:30;18.00;99.90
44775;DHT22;31340;51.402;0.016;2023-06-19T00:42:58;18.00;99.90
44775;DHT22;31340;51.402;0.016;2023-06-19T00:45:28;18.00;99.90
44775;DHT22;31340;51.402;0.016;2023-06-19T00:47:58;18.00;99.90
44775;DHT22;31340;51.402;0.016;2023-06-19T00:50:28;18.00;99.90
44775;DHT22;31340;51.402;0.016;2023-06-19T00:52:56;18.00;99.90
44775;DHT22;31340;51.402;0.016;2023-06-19T00:55:30;18.00;99.90
44775;DHT22;31340;51.402;0.016;2023-06-19T00:57:59;18.00;99.90
44775;DHT22;31340;51.402;0.016;2023-06-19T01:00:27;18.00;99.90
44775;DHT22;31340;51.402;0.016;2023-06-19T01:02:57;18.00;99.90
44775;DHT22;31340;51.402;0.016;2023-06-19T01:05:29;18.00;99.90
44775;DHT22;31340;51.402;0.016;2023-06-19T01:08:14;18.10;99.90
44775;DHT22;31340;51.402;0.016;2023-06-19T01:10:52;18.10;99.90
44775;DHT22;31340;51.402;0.016;2023-06-19T01:13:45;18.00;99.90
44775;DHT22;31340;51.402;0.016;2023-06-19T01:16:15;18.10;99.90
44775;DHT22;31340;51.402;0.016;2023-06-19T01:18:43;18.00;99.90
44775;DHT22;31340;51.402;0.016;2023-06-19T01:21:16;18.00;99.90
44775;DHT22;31340;51.402;0.016;2023-06-19T01:23:44;18.00;99.90
44775;DHT22;31340;51.402;0.016;2023-06-19T01:26:12;18.00;99.90
44775;DHT22;31340;51.402;0.016;2023-06-19T01:28:41;18.00;99.90
44775;DHT22;31340;51.402;0.016;2023-06-19T01:31:13;18.00;99.90
44775;DHT22;31340;51.402;0.016;2023-06-19T01:33:43;18.00;99.90
44775;DHT22;31340;51.402;0.016;2023-06-19T01:36:16;18.00;99.90
44775;DHT22;31340;51.402;0.016;2023-06-19T01:38:45;18.00;99.90
44775;DHT22;31340;51.402;0.016;2023-06-19T01:41:14;18.00;99.90
44775;DHT22;31340;51.402;0.016;2023-06-19T01:43:43;18.00;99.90
44775;DHT22;31340;51.402;0.016;2023-06-19T01:46:12;18.00;99.90
44775;DHT22;31340;51.402;0.016;2023-06-19T01:48:39;18.00;99.90
44775;DHT22;31340;51.402;0.016;2023-06-19T01:51:07;18.00;99.90
44775;DHT22;31340;51.402;0.016;2023-06-19T01:53:35;18.00;99.90
44775;DHT22;31340;51.402;0.016;2023-06-19T01:56:02;18.00;99.90
44775;DHT22;31340;51.402;0.016;2023-06-19T01:58:30;18.00;99.90
44775;DHT22;31340;51.402;0.016;2023-06-19T02:00:58;18.00;99.90
44775;DHT22;31340;51.402;0.016;2023-06-19T02:03:25;18.00;99.90
44775;DHT22;31340;51.402;0.016;2023-06-19T02:05:53;18.00;99.90
44775;DHT22;31340;51.402;0.016;2023-06-19T02:08:21;18.00;99.90
44775;DHT22;31340;51.402;0.016;2023-06-19T02:10:48;18.00;99.90
44775;DHT22;31340;51.402;0.016;2023-06-19T02:13:16;18.00;99.90
44775;DHT22;31340;51.402;0.016;2023-06-19T02:15:43;17.90;99.90
44775;DHT22;31340;51.402;0.016;2023-06-19T02:18:11;17.90;99.90
44775;DHT22;31340;51.402;0.016;2023-06-19T02:20:38;17.90;99.90
44775;DHT22;31340;51.402;0.016;2023-06-19T02:23:06;17.90;99.90
44775;DHT22;31340;51.402;0.016;2023-06-19T02:25:34;17.90;99.90
44775;DHT22;31340;51.402;0.016;2023-06-19T02:28:02;17.90;99.90
44775;DHT22;31340;51.402;0.016;2023-06-19T02:30:31;17.80;99.90
44775;DHT22;31340;51.402;0.016;2023-06-19T02:32:58;17.80;99.90
44775;DHT22;31340;51.402;0.016;2023-06-19T02:35:26;17.80;99.90
44775;DHT22;31340;51.402;0.016;2023-06-19T02:37:55;17.80;99.90
44775;DHT22;31340;51.402;0.016;2023-06-19T02:40:23;17.80;99.90
44775;DHT22;31340;51.402;0.016;2023-06-19T02:42:51;17.70;99.90
44775;DHT22;31340;51.402;0.016;2023-06-19T02:45:19;17.70;99.90
44775;DHT22;31340;51.402;0.016;2023-06-19T02:47:47;17.70;99.90
44775;DHT22;31340;51.402;0.016;2023-06-19T02:50:15;17.70;99.90
44775;DHT22;31340;51.402;0.016;2023-06-19T02:52:42;17.60;99.90
44775;DHT22;31340;51.402;0.016;2023-06-19T02:55:10;17.70;99.90
44775;DHT22;31340;51.402;0.016;2023-06-19T02:57:38;17.60;99.90
44775;DHT22;31340;51.402;0.016;2023-06-19T03:00:05;17.60;99.90
44775;DHT22;31340;51.402;0.016;2023-06-19T03:02:35;17.60;99.90
44775;DHT22;31340;51.402;0.016;2023-06-19T03:05:04;17.60;99.90
44775;DHT22;31340;51.402;0.016;2023-06-19T03:07:32;17.50;99.90
44775;DHT22;31340;51.402;0.016;2023-06-19T03:10:01;17.50;99.90
44775;DHT22;31340;51.402;0.016;2023-06-19T03:12:29;17.50;99.90
44775;DHT22;31340;51.402;0.016;2023-06-19T03:14:57;17.50;99.90
44775;DHT22;31340;51.402;0.016;2023-06-19T03:17:26;17.50;99.90
44775;DHT22;31340;51.402;0.016;2023-06-19T03:19:53;17.50;99.90
44775;DHT22;31340;51.402;0.016;2023-06-19T03:22:22;17.40;99.90
44775;DHT22;31340;51.402;0.016;2023-06-19T03:24:51;17.40;99.90
44775;DHT22;31340;51.402;0.016;2023-06-19T03:27:21;17.40;99.90
44775;DHT22;31340;51.402;0.016;2023-06-19T03:29:49;17.40;99.90
44775;DHT22;31340;51.402;0.016;2023-06-19T03:32:23;17.40;99.90
44775;DHT22;31340;51.402;0.016;2023-06-19T03:34:52;17.30;99.90
44775;DHT22;31340;51.402;0.016;2023-06-19T03:37:20;17.30;99.90
44775;DHT22;31340;51.402;0.016;2023-06-19T03:39:48;17.30;99.90
44775;DHT22;31340;51.402;0.016;2023-06-19T03:42:16;17.30;99.90
44775;DHT22;31340;51.402;0.016;2023-06-19T03:44:45;17.30;99.90
44775;DHT22;31340;51.402;0.016;2023-06-19T03:47:12;17.30;99.90
44775;DHT22;31340;51.402;0.016;2023-06-19T03:49:41;17.20;99.90
44775;DHT22;31340;51.402;0.016;2023-06-19T03:52:09;17.20;99.90
44775;DHT22;31340;51.402;0.016;2023-06-19T03:54:36;17.20;99.90
44775;DHT22;31340;51.402;0.016;2023-06-19T03:57:04;17.20;99.90
44775;DHT22;31340;51.402;0.016;2023-06-19T03:59:32;17.10;99.90
44775;DHT22;31340;51.402;0.016;2023-06-19T04:01:59;17.20;99.90
44775;DHT22;31340;51.402;0.016;2023-06-19T04:04:27;17.10;99.90
44775;DHT22;31340;51.402;0.016;2023-06-19T04:09:51;17.10;99.90
44775;DHT22;31340;51.402;0.016;2023-06-19T04:12:18;17.10;99.90
44775;DHT22;31340;51.402;0.016;2023-06-19T04:14:47;17.10;99.90
44775;DHT22;31340;51.402;0.016;2023-06-19T04:17:14;17.10;99.90
44775;DHT22;31340;51.402;0.016;2023-06-19T04:19:43;17.10;99.90
44775;DHT22;31340;51.402;0.016;2023-06-19T04:22:11;17.10;99.90
44775;DHT22;31340;51.402;0.016;2023-06-19T04:24:38;17.00;99.90
44775;DHT22;31340;51.402;0.016;2023-06-19T04:27:06;17.00;99.90
44775;DHT22;31340;51.402;0.016;2023-06-19T04:29:35;17.00;99.90
44775;DHT22;31340;51.402;0.016;2023-06-19T04:32:03;17.00;99.90
44775;DHT22;31340;51.402;0.016;2023-06-19T04:34:40;17.00;99.90
44775;DHT22;31340;51.402;0.016;2023-06-19T04:37:09;17.10;99.90
44775;DHT22;31340;51.402;0.016;2023-06-19T04:39:37;17.10;99.90
44775;DHT22;31340;51.402;0.016;2023-06-19T04:42:05;17.00;99.90
44775;DHT22;31340;51.402;0.016;2023-06-19T04:44:32;17.10;99.90
44775;DHT22;31340;51.402;0.016;2023-06-19T04:47:01;17.10;99.90
44775;DHT22;31340;51.402;0.016;2023-06-19T04:49:29;17.10;99.90
44775;DHT22;31340;51.402;0.016;2023-06-19T04:51:59;17.10;99.90
44775;DHT22;31340;51.402;0.016;2023-06-19T04:54:27;17.10;99.90
44775;DHT22;31340;51.402;0.016;2023-06-19T04:56:54;17.20;99.90
44775;DHT22;31340;51.402;0.016;2023-06-19T04:59:22;17.20;99.90
44775;DHT22;31340;51.402;0.016;2023-06-19T05:01:50;17.30;99.90
44775;DHT22;31340;51.402;0.016;2023-06-19T05:04:21;17.20;99.90
44775;DHT22;31340;51.402;0.016;2023-06-19T05:06:50;17.30;99.90
44775;DHT22;31340;51.402;0.016;2023-06-19T05:09:20;17.30;99.90
44775;DHT22;31340;51.402;0.016;2023-06-19T05:11:48;17.30;99.90
44775;DHT22;31340;51.402;0.016;2023-06-19T05:14:16;17.30;99.90
44775;DHT22;31340;51.402;0.016;2023-06-19T05:16:44;17.40;99.90
44775;DHT22;31340;51.402;0.016;2023-06-19T05:19:11;17.40;99.90
44775;DHT22;31340;51.402;0.016;2023-06-19T05:21:39;17.50;99.90
44775;DHT22;31340;51.402;0.016;2023-06-19T05:24:07;17.50;99.90
44775;DHT22;31340;51.402;0.016;2023-06-19T05:26:35;17.50;99.90
44775;DHT22;31340;51.402;0.016;2023-06-19T05:29:03;17.50;99.90
44775;DHT22;31340;51.402;0.016;2023-06-19T05:31:30;17.60;99.90
44775;DHT22;31340;51.402;0.016;2023-06-19T05:33:58;17.60;99.90
44775;DHT22;31340;51.402;0.016;2023-06-19T05:36:26;17.70;99.90
44775;DHT22;31340;51.402;0.016;2023-06-19T05:38:54;17.70;99.90
44775;DHT22;31340;51.402;0.016;2023-06-19T05:41:22;17.70;99.90
44775;DHT22;31340;51.402;0.016;2023-06-19T05:43:50;17.80;99.90
44775;DHT22;31340;51.402;0.016;2023-06-19T05:46:18;17.80;99.90
44775;DHT22;31340;51.402;0.016;2023-06-19T05:48:47;17.90;99.90
44775;DHT22;31340;51.402;0.016;2023-06-19T05:51:14;17.90;99.90
44775;DHT22;31340;51.402;0.016;2023-06-19T05:53:42;17.90;99.90
44775;DHT22;31340;51.402;0.016;2023-06-19T05:56:11;18.00;99.90
44775;DHT22;31340;51.402;0.016;2023-06-19T05:58:38;18.00;99.90
44775;DHT22;31340;51.402;0.016;2023-06-19T06:01:06;18.00;99.90
44775;DHT22;31340;51.402;0.016;2023-06-19T06:03:35;18.10;99.90
44775;DHT22;31340;51.402;0.016;2023-06-19T06:06:04;18.10;99.90
44775;DHT22;31340;51.402;0.016;2023-06-19T06:08:32;18.10;99.90
44775;DHT22;31340;51.402;0.016;2023-06-19T06:11:00;18.10;99.90
44775;DHT22;31340;51.402;0.016;2023-06-19T06:13:28;18.20;99.90
44775;DHT22;31340;51.402;0.016;2023-06-19T06:15:56;18.20;99.90
44775;DHT22;31340;51.402;0.016;2023-06-19T06:18:24;18.30;99.90
44775;DHT22;31340;51.402;0.016;2023-06-19T06:20:51;18.30;99.90
44775;DHT22;31340;51.402;0.016;2023-06-19T06:23:19;18.40;99.90
44775;DHT22;31340;51.402;0.016;2023-06-19T06:25:47;18.40;99.90
44775;DHT22;31340;51.402;0.016;2023-06-19T06:28:15;18.40;99.90
44775;DHT22;31340;51.402;0.016;2023-06-19T06:30:43;18.50;99.90
44775;DHT22;31340;51.402;0.016;2023-06-19T06:33:10;18.50;99.90
44775;DHT22;31340;51.402;0.016;2023-06-19T06:35:38;18.60;99.90
44775;DHT22;31340;51.402;0.016;2023-06-19T06:38:06;18.60;99.90
44775;DHT22;31340;51.402;0.016;2023-06-19T06:40:34;18.60;99.90
44775;DHT22;31340;51.402;0.016;2023-06-19T06:43:01;18.60;99.90
44775;DHT22;31340;51.402;0.016;2023-06-19T06:45:32;18.70;99.90
44775;DHT22;31340;51.402;0.016;2023-06-19T06:47:59;18.80;99.90
44775;DHT22;31340;51.402;0.016;2023-06-19T06:50:27;18.80;99.90
44775;DHT22;31340;51.402;0.016;2023-06-19T06:52:55;18.80;99.90
44775;DHT22;31340;51.402;0.016;2023-06-19T06:55:22;18.90;99.90
44775;DHT22;31340;51.402;0.016;2023-06-19T06:57:50;18.90;99.90
44775;DHT22;31340;51.402;0.016;2023-06-19T07:00:18;18.90;99.90
44775;DHT22;31340;51.402;0.016;2023-06-19T07:02:45;18.90;99.90
44775;DHT22;31340;51.402;0.016;2023-06-19T07:05:15;19.00;99.90
44775;DHT22;31340;51.402;0.016;2023-06-19T07:07:43;19.00;99.90
44775;DHT22;31340;51.402;0.016;2023-06-19T07:10:11;19.10;99.90
44775;DHT22;31340;51.402;0.016;2023-06-19T07:12:46;19.10;99.90
44775;DHT22;31340;51.402;0.016;2023-06-19T07:15:14;19.10;99.90
44775;DHT22;31340;51.402;0.016;2023-06-19T07:17:42;19.20;99.90
44775;DHT22;31340;51.402;0.016;2023-06-19T07:20:10;19.20;99.90
44775;DHT22;31340;51.402;0.016;2023-06-19T07:22:38;19.30;99.90
44775;DHT22;31340;51.402;0.016;2023-06-19T07:25:07;19.30;99.90
44775;DHT22;31340;51.402;0.016;2023-06-19T07:27:35;19.40;99.90
44775;DHT22;31340;51.402;0.016;2023-06-19T07:30:03;19.40;99.90
44775;DHT22;31340;51.402;0.016;2023-06-19T07:32:31;19.50;99.90
44775;DHT22;31340;51.402;0.016;2023-06-19T07:34:59;19.50;99.90
44775;DHT22;31340;51.402;0.016;2023-06-19T07:37:27;19.60;99.90
44775;DHT22;31340;51.402;0.016;2023-06-19T07:39:54;19.70;99.90
44775;DHT22;31340;51.402;0.016;2023-06-19T07:42:23;19.70;99.90
44775;DHT22;31340;51.402;0.016;2023-06-19T07:44:51;19.80;99.90
44775;DHT22;31340;51.402;0.016;2023-06-19T07:47:19;19.80;99.90
44775;DHT22;31340;51.402;0.016;2023-06-19T07:49:47;19.90;99.90
44775;DHT22;31340;51.402;0.016;2023-06-19T07:52:15;20.00;99.90
44775;DHT22;31340;51.402;0.016;2023-06-19T07:54:56;20.00;99.90
44775;DHT22;31340;51.402;0.016;2023-06-19T07:57:25;20.10;99.90
44775;DHT22;31340;51.402;0.016;2023-06-19T07:59:54;20.10;99.90
44775;DHT22;31340;51.402;0.016;2023-06-19T08:02:22;20.20;99.90
44775;DHT22;31340;51.402;0.016;2023-06-19T08:04:50;20.20;99.90
44775;DHT22;31340;51.402;0.016;2023-06-19T08:07:18;20.30;99.90
44775;DHT22;31340;51.402;0.016;2023-06-19T08:09:46;20.30;99.90
44775;DHT22;31340;51.402;0.016;2023-06-19T08:12:23;20.40;99.90
44775;DHT22;31340;51.402;0.016;2023-06-19T08:14:51;20.40;99.90
44775;DHT22;31340;51.402;0.016;2023-06-19T08:17:18;20.50;99.90
44775;DHT22;31340;51.402;0.016;2023-06-19T08:19:47;20.60;99.90
44775;DHT22;31340;51.402;0.016;2023-06-19T08:22:15;20.60;99.90
44775;DHT22;31340;51.402;0.016;2023-06-19T08:24:43;20.60;99.90
44775;DHT22;31340;51.402;0.016;2023-06-19T08:27:11;20.70;99.90
44775;DHT22;31340;51.402;0.016;2023-06-19T08:29:38;20.70;99.90
44775;DHT22;31340;51.402;0.016;2023-06-19T08:32:07;20.80;99.80
44775;DHT22;31340;51.402;0.016;2023-06-19T08:34:36;20.80;99.70
44775;DHT22;31340;51.402;0.016;2023-06-19T08:37:06;20.90;99.50
44775;DHT22;31340;51.402;0.016;2023-06-19T08:39:33;20.90;98.80
44775;DHT22;31340;51.402;0.016;2023-06-19T08:42:01;21.00;98.30
44775;DHT22;31340;51.402;0.016;2023-06-19T08:44:29;21.00;98.00
44775;DHT22;31340;51.402;0.016;2023-06-19T08:46:57;21.00;97.80
44775;DHT22;31340;51.402;0.016;2023-06-19T08:49:30;21.10;97.30
44775;DHT22;31340;51.402;0.016;2023-06-19T08:51:58;21.20;97.30
44775;DHT22;31340;51.402;0.016;2023-06-19T08:54:25;21.20;97.30
44775;DHT22;31340;51.402;0.016;2023-06-19T08:56:53;21.20;97.00
44775;DHT22;31340;51.402;0.016;2023-06-19T08:59:21;21.30;97.00
44775;DHT22;31340;51.402;0.016;2023-06-19T09:01:54;21.30;96.80
44775;DHT22;31340;51.402;0.016;2023-06-19T09:04:39;21.40;96.70
44775;DHT22;31340;51.402;0.016;2023-06-19T09:07:08;21.50;96.70
44775;DHT22;31340;51.402;0.016;2023-06-19T09:09:46;21.50;96.80
44775;DHT22;31340;51.402;0.016;2023-06-19T09:12:14;21.60;96.30
44775;DHT22;31340;51.402;0.016;2023-06-19T09:14:47;21.70;96.20
44775;DHT22;31340;51.402;0.016;2023-06-19T09:17:21;21.80;96.00
44775;DHT22;31340;51.402;0.016;2023-06-19T09:19:53;21.90;95.70
44775;DHT22;31340;51.402;0.016;2023-06-19T09:22:23;22.00;95.60
44775;DHT22;31340;51.402;0.016;2023-06-19T09:24:52;22.10;95.70
44775;DHT22;31340;51.402;0.016;2023-06-19T09:27:21;22.20;95.70
44775;DHT22;31340;51.402;0.016;2023-06-19T09:29:50;22.30;95.40
44775;DHT22;31340;51.402;0.016;2023-06-19T09:34:49;22.40;94.30
44775;DHT22;31340;51.402;0.016;2023-06-19T09:37:26;22.50;94.20
44775;DHT22;31340;51.402;0.016;2023-06-19T09:39:59;22.60;94.40
44775;DHT22;31340;51.402;0.016;2023-06-19T09:42:33;22.60;93.90
44775;DHT22;31340;51.402;0.016;2023-06-19T09:45:05;22.80;94.00
44775;DHT22;31340;51.402;0.016;2023-06-19T09:47:45;22.90;93.90
44775;DHT22;31340;51.402;0.016;2023-06-19T09:50:17;23.00;93.60
44775;DHT22;31340;51.402;0.016;2023-06-19T09:52:49;23.10;93.10
44775;DHT22;31340;51.402;0.016;2023-06-19T09:55:19;23.20;93.20
44775;DHT22;31340;51.402;0.016;2023-06-19T09:57:47;23.40;93.20
44775;DHT22;31340;51.402;0.016;2023-06-19T10:00:16;23.50;93.00
44775;DHT22;31340;51.402;0.016;2023-06-19T10:02:50;23.60;92.70
44775;DHT22;31340;51.402;0.016;2023-06-19T10:05:28;23.80;92.30
44775;DHT22;31340;51.402;0.016;2023-06-19T10:07:57;23.90;91.80
44775;DHT22;31340;51.402;0.016;2023-06-19T10:10:28;24.00;91.70
44775;DHT22;31340;51.402;0.016;2023-06-19T10:13:13;24.10;91.40
44775;DHT22;31340;51.402;0.016;2023-06-19T10:15:42;24.10;91.10
44775;DHT22;31340;51.402;0.016;2023-06-19T10:18:17;24.20;91.00
44775;DHT22;31340;51.402;0.016;2023-06-19T10:20:46;24.30;90.60
44775;DHT22;31340;51.402;0.016;2023-06-19T10:23:20;24.30;90.50
44775;DHT22;31340;51.402;0.016;2023-06-19T10:33:31;24.70;87.10
44775;DHT22;31340;51.402;0.016;2023-06-19T10:36:01;24.80;86.10
44775;DHT22;31340;51.402;0.016;2023-06-19T10:38:29;24.90;85.90
44775;DHT22;31340;51.402;0.016;2023-06-19T10:40:57;25.00;85.10
44775;DHT22;31340;51.402;0.016;2023-06-19T10:43:25;25.20;84.80
44775;DHT22;31340;51.402;0.016;2023-06-19T10:45:58;25.20;83.90
44775;DHT22;31340;51.402;0.016;2023-06-19T10:48:30;25.30;84.30
44775;DHT22;31340;51.402;0.016;2023-06-19T10:50:59;25.30;84.20
44775;DHT22;31340;51.402;0.016;2023-06-19T10:53:29;25.40;84.00
44775;DHT22;31340;51.402;0.016;2023-06-19T10:56:01;25.50;84.00
44775;DHT22;31340;51.402;0.016;2023-06-19T10:58:29;25.50;83.90
44775;DHT22;31340;51.402;0.016;2023-06-19T11:00:57;25.50;83.40
44775;DHT22;31340;51.402;0.016;2023-06-19T11:03:25;25.60;83.10
44775;DHT22;31340;51.402;0.016;2023-06-19T11:05:54;25.60;83.10
44775;DHT22;31340;51.402;0.016;2023-06-19T11:08:22;25.60;83.10
44775;DHT22;31340;51.402;0.016;2023-06-19T11:10:50;25.70;82.10
44775;DHT22;31340;51.402;0.016;2023-06-19T11:13:19;25.70;81.50
44775;DHT22;31340;51.402;0.016;2023-06-19T11:15:50;25.90;81.50
44775;DHT22;31340;51.402;0.016;2023-06-19T11:18:18;26.00;81.10
44775;DHT22;31340;51.402;0.016;2023-06-19T11:20:51;26.10;81.10
44775;DHT22;31340;51.402;0.016;2023-06-19T11:23:31;26.20;80.30
44775;DHT22;31340;51.402;0.016;2023-06-19T11:26:03;26.40;79.20
44775;DHT22;31340;51.402;0.016;2023-06-19T11:28:32;26.60;79.60
44775;DHT22;31340;51.402;0.016;2023-06-19T11:31:02;26.70;78.50
44775;DHT22;31340;51.402;0.016;2023-06-19T11:33:33;26.90;77.90
44775;DHT22;31340;51.402;0.016;2023-06-19T11:36:01;27.00;77.20
44775;DHT22;31340;51.402;0.016;2023-06-19T11:38:31;27.00;76.90
44775;DHT22;31340;51.402;0.016;2023-06-19T11:40:59;27.10;76.50
44775;DHT22;31340;51.402;0.016;2023-06-19T11:43:31;27.10;75.70
44775;DHT22;31340;51.402;0.016;2023-06-19T11:46:03;27.30;75.70
44775;DHT22;31340;51.402;0.016;2023-06-19T11:48:32;27.40;74.90
44775;DHT22;31340;51.402;0.016;2023-06-19T11:51:00;27.50;75.20
44775;DHT22;31340;51.402;0.016;2023-06-19T11:53:28;27.50;74.30
44775;DHT22;31340;51.402;0.016;2023-06-19T11:55:56;27.60;74.10
44775;DHT22;31340;51.402;0.016;2023-06-19T11:58:24;27.60;73.30
44775;DHT22;31340;51.402;0.016;2023-06-19T12:00:53;27.50;72.90
44775;DHT22;31340;51.402;0.016;2023-06-19T12:03:21;27.50;73.50
44775;DHT22;31340;51.402;0.016;2023-06-19T12:05:48;27.50;73.50
44775;DHT22;31340;51.402;0.016;2023-06-19T12:08:16;27.60;74.30
44775;DHT22;31340;51.402;0.016;2023-06-19T12:10:44;27.60;74.60
44775;DHT22;31340;51.402;0.016;2023-06-19T12:13:12;27.60;73.60
44775;DHT22;31340;51.402;0.016;2023-06-19T12:15:39;27.70;72.70
44775;DHT22;31340;51.402;0.016;2023-06-19T12:18:07;27.80;72.00
44775;DHT22;31340;51.402;0.016;2023-06-19T12:20:35;27.80;71.50
44775;DHT22;31340;51.402;0.016;2023-06-19T12:23:03;27.80;71.70
44775;DHT22;31340;51.402;0.016;2023-06-19T12:25:31;27.90;71.80
44775;DHT22;31340;51.402;0.016;2023-06-19T12:27:59;27.90;71.70
44775;DHT22;31340;51.402;0.016;2023-06-19T12:30:27;28.00;70.60
44775;DHT22;31340;51.402;0.016;2023-06-19T12:32:54;28.00;70.20
44775;DHT22;31340;51.402;0.016;2023-06-19T12:35:22;28.10;70.20
44775;DHT22;31340;51.402;0.016;2023-06-19T12:37:50;28.10;69.80
44775;DHT22;31340;51.402;0.016;2023-06-19T12:40:18;28.20;69.00
44775;DHT22;31340;51.402;0.016;2023-06-19T12:42:46;28.30;69.50
44775;DHT22;31340;51.402;0.016;2023-06-19T12:45:14;28.40;68.80
44775;DHT22;31340;51.402;0.016;2023-06-19T12:47:42;28.60;68.50
44775;DHT22;31340;51.402;0.016;2023-06-19T12:50:10;28.70;67.60
44775;DHT22;31340;51.402;0.016;2023-06-19T12:52:39;28.80;67.90
44775;DHT22;31340;51.402;0.016;2023-06-19T12:55:07;29.00;66.80
44775;DHT22;31340;51.402;0.016;2023-06-19T12:57:35;29.10;65.80
44775;DHT22;31340;51.402;0.016;2023-06-19T13:00:14;29.30;65.30
44775;DHT22;31340;51.402;0.016;2023-06-19T13:02:44;29.40;65.10
44775;DHT22;31340;51.402;0.016;2023-06-19T13:05:14;29.50;64.90
44775;DHT22;31340;51.402;0.016;2023-06-19T13:07:42;29.70;63.50
44775;DHT22;31340;51.402;0.016;2023-06-19T13:10:10;29.80;62.50
44775;DHT22;31340;51.402;0.016;2023-06-19T13:12:38;29.90;61.70
44775;DHT22;31340;51.402;0.016;2023-06-19T13:15:07;30.00;61.10
44775;DHT22;31340;51.402;0.016;2023-06-19T13:17:35;30.10;61.00
44775;DHT22;31340;51.402;0.016;2023-06-19T13:20:03;30.20;60.30
44775;DHT22;31340;51.402;0.016;2023-06-19T13:22:32;30.20;59.60
44775;DHT22;31340;51.402;0.016;2023-06-19T13:25:00;30.30;59.40
44775;DHT22;31340;51.402;0.016;2023-06-19T13:27:28;30.30;58.30
44775;DHT22;31340;51.402;0.016;2023-06-19T13:29:55;30.30;58.30
44775;DHT22;31340;51.402;0.016;2023-06-19T13:32:23;30.40;58.40
44775;DHT22;31340;51.402;0.016;2023-06-19T13:34:51;30.30;58.00
44775;DHT22;31340;51.402;0.016;2023-06-19T13:37:19;30.40;57.70
44775;DHT22;31340;51.402;0.016;2023-06-19T13:39:47;30.50;58.20
44775;DHT22;31340;51.402;0.016;2023-06-19T13:42:15;30.60;56.90
44775;DHT22;31340;51.402;0.016;2023-06-19T13:44:42;30.60;56.60
44775;DHT22;31340;51.402;0.016;2023-06-19T13:47:10;30.70;56.50
44775;DHT22;31340;51.402;0.016;2023-06-19T13:49:39;30.70;56.60
44775;DHT22;31340;51.402;0.016;2023-06-19T13:52:12;30.70;56.10
44775;DHT22;31340;51.402;0.016;2023-06-19T13:54:39;30.80;56.10
44775;DHT22;31340;51.402;0.016;2023-06-19T13:57:07;30.90;55.90
44775;DHT22;31340;51.402;0.016;2023-06-19T13:59:35;30.90;55.20
44775;DHT22;31340;51.402;0.016;2023-06-19T14:02:02;30.90;55.10
44775;DHT22;31340;51.402;0.016;2023-06-19T14:04:30;30.80;54.50
44775;DHT22;31340;51.402;0.016;2023-06-19T14:06:59;30.70;54.90
44775;DHT22;31340;51.402;0.016;2023-06-19T14:09:27;30.70;54.10
44775;DHT22;31340;51.402;0.016;2023-06-19T14:11:55;30.70;54.20
44775;DHT22;31340;51.402;0.016;2023-06-19T14:14:22;30.70;54.10
44775;DHT22;31340;51.402;0.016;2023-06-19T14:16:50;30.70;53.90
44775;DHT22;31340;51.402;0.016;2023-06-19T14:19:18;30.70;53.20
44775;DHT22;31340;51.402;0.016;2023-06-19T14:21:46;30.70;53.20
44775;DHT22;31340;51.402;0.016;2023-06-19T14:24:14;30.80;53.70
44775;DHT22;31340;51.402;0.016;2023-06-19T14:26:41;30.90;53.50
44775;DHT22;31340;51.402;0.016;2023-06-19T14:29:09;31.00;53.10
44775;DHT22;31340;51.402;0.016;2023-06-19T14:31:36;31.10;53.30
44775;DHT22;31340;51.402;0.016;2023-06-19T14:34:04;31.10;52.70
44775;DHT22;31340;51.402;0.016;2023-06-19T14:36:32;31.20;52.50
44775;DHT22;31340;51.402;0.016;2023-06-19T14:38:59;31.10;52.10
44775;DHT22;31340;51.402;0.016;2023-06-19T14:41:27;31.00;51.90
44775;DHT22;31340;51.402;0.016;2023-06-19T14:43:54;31.00;52.10
44775;DHT22;31340;51.402;0.016;2023-06-19T14:46:22;30.80;52.40
44775;DHT22;31340;51.402;0.016;2023-06-19T14:49:12;30.80;52.80
44775;DHT22;31340;51.402;0.016;2023-06-19T14:51:43;30.80;52.60
44775;DHT22;31340;51.402;0.016;2023-06-19T14:54:11;30.60;52.70
44775;DHT22;31340;51.402;0.016;2023-06-19T14:56:38;30.50;52.70
44775;DHT22;31340;51.402;0.016;2023-06-19T14:59:06;30.40;53.00
44775;DHT22;31340;51.402;0.016;2023-06-19T15:01:33;30.50;53.60
44775;DHT22;31340;51.402;0.016;2023-06-19T15:04:01;30.40;53.70
44775;DHT22;31340;51.402;0.016;2023-06-19T15:06:29;30.40;54.00
44775;DHT22;31340;51.402;0.016;2023-06-19T15:08:57;30.50;53.30
44775;DHT22;31340;51.402;0.016;2023-06-19T15:11:26;30.60;52.90
44775;DHT22;31340;51.402;0.016;2023-06-19T15:13:54;30.60;52.40
44775;DHT22;31340;51.402;0.016;2023-06-19T15:16:23;30.70;52.50
44775;DHT22;31340;51.402;0.016;2023-06-19T15:18:53;30.90;52.40
44775;DHT22;31340;51.402;0.016;2023-06-19T15:21:22;31.00;52.20
44775;DHT22;31340;51.402;0.016;2023-06-19T15:23:53;31.10;51.60
44775;DHT22;31340;51.402;0.016;2023-06-19T15:26:22;31.30;51.20
44775;DHT22;31340;51.402;0.016;2023-06-19T15:28:50;31.30;51.30
44775;DHT22;31340;51.402;0.016;2023-06-19T15:31:21;31.40;51.00
44775;DHT22;31340;51.402;0.016;2023-06-19T15:33:50;31.50;50.80
44775;DHT22;31340;51.402;0.016;2023-06-19T15:36:18;31.50;50.80
44775;DHT22;31340;51.402;0.016;2023-06-19T15:38:45;31.50;50.60
44775;DHT22;31340;51.402;0.016;2023-06-19T15:41:13;31.60;50.50
44775;DHT22;31340;51.402;0.016;2023-06-19T15:43:41;31.60;50.30
44775;DHT22;31340;51.402;0.016;2023-06-19T15:46:09;31.70;49.90
44775;DHT22;31340;51.402;0.016;2023-06-19T15:48:37;31.50;49.10
44775;DHT22;31340;51.402;0.016;2023-06-19T15:51:04;31.40;49.40
44775;DHT22;31340;51.402;0.016;2023-06-19T15:53:32;31.30;50.00